Solana Beach (660, 1081) Station Data

Red Flag Warning: No
Fire Weather Zone: 243
SDGE Region: Beach Cities
Lat/Lon: 33.007/-117.276

Observations

Time Wind Speed/Gust Temp(F) RH Fuel Moist Fuel Temp(F) Dewpt(F) Tmax(F) Tmin(F) Accum Precip 10-min Precip SL Press(mb)
2/27 11:40pm 278 12 G 16 62° 88% - - 58° 68.2° 50.3° - - 1012.0
2/27 11:20pm 288 14 G 19 63° 95% - - 61° 68.2° 50.3° - - 1012.0
2/27 11:10pm 278 13 G 19 62° 96% - - 61° 68.2° 50.3° - - 1012.0
2/27 11:00pm 282 15 G 19 62° 97% - - 61° 68.2° 50.3° - - 1012.0
2/27 10:50pm 286 14 G 17 63° 100% - - 63° 68.2° 50.3° - - 1012.0
2/27 10:40pm 293 15 G 19 63° 100% - - 63° 68.2° 50.3° - - 1012.0
2/27 10:30pm 274 14 G 17 61° 100% - - 62° 68.2° 50.3° - - 1012.0
2/27 10:20pm 278 12 G 17 61° 100% - - 61° 68.2° 50.3° - - 1012.0
2/27 10:10pm 281 5 G 10 62° 100% - - 62° 68.2° 50.3° - - 1012.0
2/27 10:00pm 290 4 G 5 61° 100% - - 61° 68.2° 50.3° - - 1012.0
2/27 9:50pm 292 6 G 8 62° 100% - - 62° 68.2° 50.3° - - 1012.0
2/27 9:40pm 308 8 G 10 62° 100% - - 62° 68.2° 50.3° - - 1012.0
2/27 9:30pm 315 9 G 11 62° 100% - - 62° 68.2° 50.3° - - 1012.0
2/27 9:20pm 319 9 G 11 62° 100% - - 62° 68.2° 50.3° - - 1012.0
2/27 9:10pm 326 9 G 12 62° 100% - - 62° 68.2° 50.3° - - 1011.0
2/27 9:00pm 307 8 G 10 62° 100% - - 62° 68.2° 50.3° - - 1011.0
2/27 8:50pm 326 7 G 9 62° 100% - - 62° 68.2° 50.3° - - 1011.0
2/27 8:40pm 330 6 G 9 62° 100% - - 62° 68.2° 50.3° - - 1011.0
2/27 8:30pm 325 5 G 8 62° 100% - - 62° 68.2° 50.3° - - 1011.0
2/27 8:20pm 326 4 G 7 62° 100% - - 62° 68.2° 50.3° - - 1011.0
2/27 8:10pm 322 7 G 10 62° 100% - - 62° 68.2° 50.3° - - 1011.0
2/27 8:00pm 338 5 G 8 62° 100% - - 62° 68.2° 50.3° - - 1011.0
2/27 7:50pm 340 6 G 9 62° 100% - - 62° 68.2° 50.3° - - 1011.0
2/27 7:40pm 329 7 G 9 63° 100% - - 63° 68.2° 50.3° - - 1011.0
2/27 7:30pm 322 8 G 10 64° 100% - - 64° 68.2° 50.3° - - 1011.0
2/27 7:20pm 301 8 G 11 65° 100% - - 65° 68.2° 50.3° - - 1011.0
2/27 7:10pm 261 8 G 12 64° 100% - - 64° 68.2° 50.3° - - 1011.0
2/27 7:00pm 240 10 G 14 64° 100% - - 64° 68.2° 50.3° - - 1011.0
2/27 6:50pm 232 10 G 13 64° 100% - - 64° 68.2° 50.3° - - 1011.0
2/27 6:40pm 224 9 G 15 64° 100% - - 64° 68.2° 50.3° - - 1011.0
2/27 6:30pm 228 14 G 21 64° 100% - - 64° 68.2° 50.3° - - 1011.0
2/27 6:20pm 207 16 G 22 65° 100% - - 65° 68.2° 50.3° - - 1011.0
2/27 6:10pm 220 17 G 26 65° 100% - - 65° 68.2° 50.3° - - 1011.0
2/27 6:00pm 214 14 G 21 65° 100% - - 65° 68.2° 50.3° - - 1011.0
2/27 5:50pm 215 17 G 25 65° 100% - - 65° 68.2° 50.3° - - 1011.0
2/27 5:40pm 207 18 G 23 65° 100% - - 65° 68.2° 50.3° - - 1011.0
2/27 5:30pm 197 17 G 23 65° 100% - - 65° 68.2° 50.3° - - 1011.0
2/27 5:20pm 201 18 G 26 65° 99% - - 65° 68.2° 50.3° - - 1011.0
2/27 5:10pm 206 19 G 25 65° 99% - - 65° 68.2° 50.3° - - 1011.0
2/27 5:00pm 207 18 G 22 66° 99% - - 65° 68.2° 50.3° - - 1011.0
2/27 4:50pm 206 19 G 24 65° 99% - - 65° 68.2° 50.3° - - 1011.0
2/27 4:40pm 207 21 G 28 65° 99% - - 65° 68.2° 50.3° - - 1011.0
2/27 4:30pm 199 15 G 26 66° 100% - - 66° 68.2° 50.3° - - 1011.0
2/27 4:20pm 197 15 G 22 66° 100% - - 66° 68.2° 50.3° - - 1011.0
2/27 4:10pm 203 16 G 23 65° 100% - - 65° 68.2° 50.3° - - 1011.0
2/27 4:00pm 209 19 G 25 65° 100% - - 65° 68.2° 50.3° - - 1011.0
2/27 3:50pm 204 19 G 26 65° 100% - - 65° 68.2° 50.3° - - 1011.0
2/27 3:40pm 204 20 G 28 65° 100% - - 65° 68.2° 50.3° - - 1011.0
2/27 3:30pm 198 18 G 28 65° 100% - - 65° 68.2° 50.3° - - 1011.0
2/27 3:20pm 191 13 G 21 65° 100% - - 65° 68.2° 50.3° - - 1011.0
2/27 3:10pm 187 12 G 21 65° 100% - - 65° 68.2° 50.3° - - 1011.0
2/27 3:00pm 195 16 G 24 65° 100% - - 65° 68.2° 50.3° - - 1011.0
2/27 2:50pm 194 16 G 27 65° 100% - - 65° 68.2° 50.3° - - 1011.0
2/27 2:40pm 197 17 G 26 65° 100% - - 65° 68.2° 50.3° - - 1011.0
2/27 2:30pm 195 18 G 27 66° 100% - - 66° 68.2° 50.3° - - 1011.0
2/27 2:20pm 187 15 G 25 66° 100% - - 66° 68.2° 50.3° - - 1011.0
2/27 2:10pm 188 15 G 24 66° 100% - - 66° 68.2° 50.3° - - 1011.0
2/27 2:00pm 197 19 G 28 66° 100% - - 66° 68.2° 50.3° - - 1011.0
2/27 1:50pm 199 20 G 27 66° 100% - - 66° 68.2° 50.3° - - 1011.0
2/27 1:40pm 196 20 G 30 66° 100% - - 66° 68.2° 50.3° - - 1011.0
2/27 1:30pm 196 17 G 30 66° 100% - - 66° 68.2° 50.3° - - 1011.0
2/27 1:20pm 202 20 G 28 66° 100% - - 66° 68.2° 50.3° - - 1011.0
2/27 1:10pm 211 20 G 26 66° 100% - - 66° 68.2° 50.3° - - 1012.0
2/27 1:00pm 207 22 G 31 66° 100% - - 66° 68.2° 50.3° - - 1012.0
2/27 12:50pm 200 21 G 31 66° 100% - - 66° 68.2° 50.3° - - 1012.0
2/27 12:40pm 197 20 G 31 66° 99% - - 66° 68.2° 50.3° - - 1012.0
2/27 12:30pm 205 22 G 30 67° 100% - - 67° 68.2° 50.3° - - 1012.0
2/27 12:20pm 210 22 G 30 67° 100% - - 67° 68.2° 50.3° - - 1012.0
2/27 12:10pm 206 21 G 33 66° 100% - - 66° 67.3° 50.3° - - 1012.0
2/27 12:00pm 200 19 G 28 66° 100% - - 66° 67.3° 50.3° - - 1013.0
2/27 11:50am 193 16 G 25 64° 100% - - 64° 66.4° 50.3° - - 1013.0
2/27 11:40am 193 16 G 26 64° 100% - - 64° 66.4° 50.3° - - 1013.0
2/27 11:30am 189 13 G 24 65° 100% - - 65° 66.4° 50.3° - - 1013.0
2/27 11:20am 187 15 G 25 64° 100% - - 64° 66.4° 50.3° - - 1013.0
2/27 11:10am 184 15 G 24 64° 100% - - 64° 66.4° 50.3° - - 1013.0
2/27 11:00am 186 12 G 19 64° 100% - - 64° 66.4° 50.3° - - 1013.0
2/27 10:50am 183 9 G 14 64° 100% - - 64° 66.4° 50.3° - - 1013.0
2/27 10:40am 184 11 G 20 64° 100% - - 64° 66.4° 50.3° - - 1013.0
2/27 10:30am 200 14 G 24 65° 100% - - 65° 66.4° 50.3° - - 1013.0
2/27 10:20am 193 12 G 24 65° 100% - - 65° 66.4° 50.3° - - 1014.0
2/27 10:10am 193 14 G 22 65° 100% - - 65° 66.4° 50.3° - - 1014.0
2/27 10:00am 191 15 G 24 65° 100% - - 65° 66.4° 50.3° - - 1013.0
2/27 9:50am 191 16 G 30 65° 100% - - 65° 66.4° 50.3° - - 1013.0
2/27 9:40am 185 12 G 22 65° 100% - - 65° 66.4° 50.3° - - 1013.0
2/27 9:30am 189 13 G 22 65° 100% - - 65° 66.4° 50.3° - - 1013.0
2/27 9:20am 194 16 G 26 65° 100% - - 65° 66.4° 50.3° - - 1013.0
2/27 9:10am 196 17 G 27 65° 100% - - 65° 66.4° 50.3° - - 1013.0
2/27 9:00am 194 16 G 25 65° 100% - - 65° 66.4° 50.3° - - 1013.0
2/27 8:50am 195 16 G 23 65° 100% - - 65° 66.4° 50.3° - - 1013.0
2/27 8:40am 191 11 G 19 65° 100% - - 65° 66.4° 50.3° - - 1013.0
2/27 8:30am 191 12 G 20 65° 100% - - 65° 66.4° 50.3° - - 1013.0
2/27 8:20am 193 14 G 21 65° 100% - - 65° 66.4° 50.3° - - 1013.0
2/27 8:10am 191 11 G 22 65° 100% - - 65° 66.4° 50.3° - - 1013.0
2/27 8:00am 192 12 G 19 65° 100% - - 65° 66.4° 50.3° - - 1012.0
2/27 7:50am 194 14 G 22 65° 100% - - 65° 66.4° 50.3° - - 1012.0
2/27 7:40am 194 14 G 24 65° 100% - - 65° 66.4° 50.3° - - 1012.0
2/27 7:30am 195 15 G 22 65° 100% - - 65° 66.4° 50.3° - - 1012.0
2/27 7:20am 195 14 G 21 65° 100% - - 65° 66.4° 50.3° - - 1012.0
2/27 7:10am 194 14 G 26 65° 100% - - 65° 66.4° 50.3° - - 1012.0
2/27 7:00am 193 15 G 24 65° 100% - - 66° 66.4° 50.3° - - 1012.0
2/27 6:50am 195 16 G 24 66° 100% - - 66° 66.4° 50.3° - - 1012.0
2/27 6:40am 195 17 G 25 65° 100% - - 65° 66.4° 50.3° - - 1012.0
2/27 6:30am 197 18 G 26 65° 100% - - 65° 66.4° 50.3° - - 1012.0
2/27 6:20am 196 16 G 25 65° 100% - - 65° 66.4° 50.3° - - 1012.0
2/27 6:10am 197 16 G 23 64° 100% - - 64° 65.6° 50.3° - - 1012.0
2/27 6:00am 194 12 G 21 62° 100% - - 62° 63.2° 50.3° - - 1012.0
2/27 5:50am 144 7 G 13 58° 100% - - 58° 62° 50.3° - - 1012.0
2/27 5:40am 110 5 G 7 56° 100% - - 56° 56.8° 50.3° - - 1012.0
2/27 5:30am 110 5 G 7 56° 100% - - 56° 56.5° 50.3° - - 1012.0
2/27 5:20am 111 4 G 7 55° 100% - - 55° 56.1° 50.3° - - 1012.0
2/27 5:10am 95 5 G 8 55° 100% - - 55° 55.6° 50.3° - - 1012.0
2/27 5:00am 82 2 G 3 55° 100% - - 55° 55.6° 50.3° - - 1012.0
2/27 4:50am 78 3 G 6 55° 100% - - 55° 55° 50.3° - - 1012.0
2/27 4:40am 88 7 G 10 54° 100% - - 54° 54.6° 50.3° - - 1012.0
2/27 4:30am 95 7 G 10 54° 100% - - 54° 54.1° 50.3° - - 1012.0
2/27 4:20am 96 7 G 9 54° 100% - - 54° 53.9° 50.3° - - 1012.0
2/27 4:10am 91 8 G 10 53° 100% - - 53° 53.9° 50.3° - - 1012.0
2/27 4:00am 94 8 G 10 53° 99% - - 53° 53.7° 50.3° - - 1012.0
2/27 3:50am 87 8 G 10 53° 99% - - 53° 53.5° 50.3° - - 1013.0
2/27 3:40am 86 8 G 11 53° 99% - - 52° 53.1° 50.3° - - 1013.0
2/27 3:30am 87 8 G 10 53° 99% - - 52° 53° 50.3° - - 1013.0
2/27 3:20am 92 8 G 11 53° 99% - - 52° 53° 50.3° - - 1013.0
2/27 3:10am 92 8 G 11 53° 99% - - 52° 53° 50.3° - - 1013.0
2/27 3:00am 85 8 G 10 52° 98% - - 52° 52.9° 50.3° - - 1014.0
2/27 2:50am 89 7 G 10 52° 98% - - 52° 52.6° 50.3° - - 1014.0
2/27 2:40am 92 7 G 9 52° 98% - - 52° 52.6° 50.3° - - 1014.0
2/27 2:30am 88 7 G 9 52° 97% - - 51° 52.6° 50.3° - - 1014.0
2/27 2:20am 91 7 G 9 52° 97% - - 51° 52.6° 50.3° - - 1015.0
2/27 2:10am 92 7 G 10 52° 97% - - 51° 52.6° 50.3° - - 1015.0
2/27 2:00am 90 7 G 10 52° 96% - - 51° 52.6° 50.3° - - 1015.0
2/27 1:50am 94 7 G 10 52° 95% - - 51° 52.6° 50.3° - - 1015.0
2/27 1:40am 80 7 G 9 52° 94% - - 51° 52.6° 50.3° - - 1015.0
2/27 1:30am 87 6 G 8 52° 94% - - 50° 52.5° 50.3° - - 1015.0
2/27 1:20am 89 6 G 8 52° 93% - - 50° 52.5° 50.3° - - 1015.0
2/27 1:10am 87 6 G 8 52° 92% - - 50° 52.5° 50.3° - - 1015.0
2/27 1:00am 86 6 G 8 52° 91% - - 50° 52.4° 50.3° - - 1016.0
2/27 12:50am 90 6 G 9 52° 91% - - 49° 52.2° 50.3° - - 1016.0
2/27 12:40am 92 6 G 7 52° 90% - - 49° 52.1° 50.3° - - 1016.0
2/27 12:30am 94 6 G 8 52° 90% - - 49° 52° 50.3° - - 1016.0
2/27 12:20am 97 6 G 8 51° 90% - - 48° 51.7° 50.3° - - 1016.0
2/27 12:10am 99 6 G 8 51° 91% - - 48° 51.2° 50.3° - - 1016.0
2/27 12:00am 95 6 G 8 51° 92% - - 48° 68.1° 49° - - 1016.0
2/26 11:50pm 96 6 G 8 51° 92% - - 49° 68.1° 49° - - 1016.0
2/26 11:40pm 97 8 G 10 50° 93% - - 49° 68.1° 49° - - 1016.0
2/26 11:30pm 96 7 G 10 50° 93% - - 48° 68.1° 49° - - 1016.0
2/26 11:20pm 96 6 G 8 50° 94% - - 48° 68.1° 49° - - 1016.0
2/26 11:10pm 97 7 G 9 50° 93% - - 48° 68.1° 49° - - 1016.0
2/26 11:00pm 96 8 G 10 50° 93% - - 48° 68.1° 49° - - 1016.0
2/26 10:50pm 98 8 G 9 50° 93% - - 48° 68.1° 49.1° - - 1016.0
2/26 10:40pm 96 6 G 9 50° 92% - - 48° 68.1° 49.3° - - 1016.0
2/26 10:30pm 93 6 G 9 52° 92% - - 50° 68.1° 50.6° - - 1016.0
2/26 10:20pm 92 6 G 8 53° 92% - - 50° 68.1° 51.3° - - 1016.0
2/26 10:10pm 98 5 G 7 53° 92% - - 50° 68.1° 51.5° - - 1016.0
2/26 10:00pm 99 5 G 8 52° 90% - - 50° 68.1° 51.5° - - 1016.0
2/26 9:50pm 101 7 G 8 52° 89% - - 49° 68.1° 51.7° - - 1016.0
2/26 9:40pm 93 7 G 8 53° 89% - - 50° 68.1° 52° - - 1016.0
2/26 9:30pm 100 6 G 8 53° 88% - - 50° 68.1° 52° - - 1016.0
2/26 9:20pm 99 6 G 7 54° 86% - - 50° 68.1° 53° - - 1016.0
2/26 9:10pm 96 4 G 6 56° 83% - - 50° 68.1° 54° - - 1016.0
2/26 9:00pm 106 4 G 6 56° 79% - - 50° 68.1° 55.1° - - 1016.0
2/26 8:50pm 140 2 G 5 61° 74% - - 53° 68.1° 55.1° - - 1016.0
2/26 8:40pm 207 6 G 8 63° 70% - - 53° 68.1° 60° - - 1016.0
2/26 8:30pm 214 6 G 9 63° 70% - - 53° 68.1° 60° - - 1017.0
2/26 8:20pm 213 6 G 8 63° 70% - - 53° 68.1° 60° - - 1016.0
2/26 8:10pm 213 7 G 10 62° 69% - - 51° 68.1° 60° - - 1016.0
2/26 8:00pm 225 8 G 12 61° 69% - - 51° 68.1° 60° - - 1017.0
2/26 7:50pm 219 8 G 11 61° 69% - - 51° 68.1° 60° - - 1016.0
2/26 7:40pm 223 9 G 13 62° 68% - - 51° 68.1° 60° - - 1016.0
2/26 7:30pm 222 9 G 12 62° 69% - - 51° 68.1° 60° - - 1016.0
2/26 7:20pm 218 9 G 12 62° 69% - - 51° 68.1° 60° - - 1016.0
2/26 7:10pm 208 8 G 11 61° 68% - - 51° 68.1° 60° - - 1016.0
2/26 7:00pm 208 8 G 11 61° 68% - - 51° 68.1° 60° - - 1016.0
2/26 6:50pm 210 7 G 10 61° 69% - - 51° 68.1° 60° - - 1016.0
2/26 6:40pm 217 8 G 10 61° 69% - - 51° 68.1° 60° - - 1016.0
2/26 6:30pm 211 7 G 11 62° 71% - - 52° 68.1° 60° - - 1016.0
2/26 6:20pm 215 7 G 10 61° 72% - - 52° 68.1° 60° - - 1016.0
2/26 6:10pm 207 7 G 9 61° 72% - - 52° 68.1° 60° - - 1016.0
2/26 6:00pm 214 7 G 11 61° 72% - - 52° 68.1° 60° - - 1016.0
2/26 5:50pm 222 7 G 11 61° 74% - - 53° 68.1° 60° - - 1016.0
2/26 5:40pm 230 8 G 12 61° 73% - - 53° 68.1° 60° - - 1016.0
2/26 5:30pm 223 6 G 10 61° 73% - - 52° 68.1° 60° - - 1016.0
2/26 5:20pm 222 7 G 10 61° 73% - - 53° 68.1° 60° - - 1016.0
2/26 5:10pm 233 8 G 10 61° 72% - - 52° 68.1° 60° - - 1016.0
2/26 5:00pm 231 8 G 12 61° 71% - - 51° 68.1° 60° - - 1016.0